Time;durP1;ratioP1;P1;durP2;ratioP2;P2;SDS_P1;SDS_P2;PMS_P1;PMS_P2;Temp;Humidity;BMP_temperature;BMP_pressure;BME280_temperature;BME280_humidity;BME280_pressure;Samples;Min_cycle;Max_cycle;Signal;HPM_P1;HPM_P2
2020/12/25 00:01:20;;;;;;;14.07;8.93;;;2.90;99.90;;;;;;5047447;28;20037;-73
2020/12/25 00:03:47;;;;;;;13.63;9.43;;;2.80;99.90;;;;;;5065088;28;20413;-73
2020/12/25 00:06:14;;;;;;;12.27;9.15;;;2.70;99.90;;;;;;5063958;28;20067;-73
2020/12/25 00:08:40;;;;;;;12.25;8.70;;;2.80;99.90;;;;;;5064942;28;20048;-73
2020/12/25 00:11:07;;;;;;;14.68;9.73;;;2.80;99.90;;;;;;5035494;28;20787;-73
2020/12/25 00:13:33;;;;;;;15.00;10.13;;;2.80;99.90;;;;;;5028197;28;20053;-73
2020/12/25 00:16:00;;;;;;;12.88;9.55;;;2.80;99.90;;;;;;5045746;28;20041;-72
2020/12/25 00:18:27;;;;;;;15.35;10.18;;;2.80;99.90;;;;;;5027922;28;20151;-73
2020/12/25 00:20:54;;;;;;;15.02;10.75;;;2.70;99.90;;;;;;5034225;28;20047;-72
2020/12/25 00:23:20;;;;;;;14.93;10.88;;;2.80;99.90;;;;;;5064617;28;20278;-73
2020/12/25 00:25:47;;;;;;;16.83;11.77;;;2.80;99.90;;;;;;5065558;28;20459;-75
2020/12/25 00:28:14;;;;;;;15.77;10.70;;;2.80;99.90;;;;;;5048200;28;20044;-74
2020/12/25 00:30:44;;;;;;;16.17;11.35;;;2.80;99.90;;;;;;5046304;28;20117;-73
2020/12/25 00:33:12;;;;;;;16.90;12.25;;;2.80;99.90;;;;;;5066249;28;20102;-74
2020/12/25 00:35:42;;;;;;;17.45;12.75;;;2.70;99.90;;;;;;5063776;28;20075;-74
2020/12/25 00:38:08;;;;;;;29.50;13.75;;;2.80;99.90;;;;;;5047117;28;20045;-73
2020/12/25 00:40:42;;;;;;;21.17;14.15;;;2.80;99.90;;;;;;5046194;28;20040;-74
2020/12/25 00:43:08;;;;;;;23.70;14.95;;;2.80;99.90;;;;;;5047706;28;20152;-74
2020/12/25 00:45:35;;;;;;;19.77;14.27;;;2.80;99.90;;;;;;5063445;28;20043;-74
2020/12/25 00:48:02;;;;;;;21.13;15.63;;;2.80;99.90;;;;;;5047794;28;20527;-74
2020/12/25 00:50:29;;;;;;;19.95;13.55;;;2.90;99.90;;;;;;5080341;28;20044;-72
2020/12/25 00:52:55;;;;;;;24.13;15.15;;;2.90;99.90;;;;;;5046463;28;20056;-71
2020/12/25 00:55:22;;;;;;;21.73;15.00;;;2.90;99.90;;;;;;5046520;28;20048;-73
2020/12/25 00:57:48;;;;;;;18.52;13.15;;;2.90;99.90;;;;;;5030667;28;20456;-73
2020/12/25 01:00:19;;;;;;;20.23;13.73;;;2.90;99.90;;;;;;5046374;28;20509;-72
2020/12/25 01:02:45;;;;;;;22.23;15.02;;;2.80;99.90;;;;;;5064674;28;20652;-73
2020/12/25 01:05:12;;;;;;;17.52;13.75;;;2.90;99.90;;;;;;5064730;28;20109;-74
2020/12/25 01:07:38;;;;;;;17.67;14.27;;;2.90;99.90;;;;;;5047063;28;20063;-73
2020/12/25 01:10:04;;;;;;;25.65;16.02;;;2.90;99.90;;;;;;5046056;28;20222;-73
2020/12/25 01:12:31;;;;;;;15.82;14.13;;;2.90;99.90;;;;;;5031156;28;20048;-73
2020/12/25 01:14:57;;;;;;;19.33;14.45;;;2.90;99.90;;;;;;5030665;28;20044;-74
2020/12/25 01:17:26;;;;;;;20.05;13.18;;;2.90;99.90;;;;;;5063161;28;20052;-73
2020/12/25 01:19:52;;;;;;;16.00;14.15;;;2.80;99.90;;;;;;5063271;28;20056;-73
2020/12/25 01:22:18;;;;;;;16.60;14.57;;;2.90;99.90;;;;;;5046449;28;20067;-74
2020/12/25 01:24:45;;;;;;;16.00;14.30;;;2.80;99.90;;;;;;5046522;28;20075;-71
2020/12/25 01:27:11;;;;;;;16.35;14.35;;;2.80;99.90;;;;;;5042393;28;20052;-74
2020/12/25 01:29:38;;;;;;;17.05;14.98;;;2.80;99.90;;;;;;5043737;28;20125;-72
2020/12/25 01:32:04;;;;;;;17.10;14.38;;;2.80;99.90;;;;;;5041588;28;20299;-73
2020/12/25 01:34:32;;;;;;;17.88;13.85;;;2.80;99.90;;;;;;5043515;28;20060;-74
2020/12/25 01:36:58;;;;;;;15.75;13.63;;;2.80;99.90;;;;;;5026230;28;20053;-72
2020/12/25 01:39:25;;;;;;;18.73;13.32;;;2.80;99.90;;;;;;5053524;28;20041;-73
2020/12/25 01:41:51;;;;;;;12.90;11.68;;;2.80;99.90;;;;;;5054519;28;20082;-73
2020/12/25 01:44:17;;;;;;;14.48;13.00;;;2.70;99.90;;;;;;5047010;28;20048;-74
2020/12/25 01:46:44;;;;;;;15.68;13.73;;;2.70;99.90;;;;;;5062829;28;20044;-73
2020/12/25 01:49:10;;;;;;;15.63;14.23;;;2.70;99.90;;;;;;5064195;28;20128;-73
2020/12/25 01:51:37;;;;;;;16.90;15.30;;;2.70;99.90;;;;;;5062807;28;20045;-73
2020/12/25 01:54:04;;;;;;;15.00;13.57;;;2.70;99.90;;;;;;5063551;28;20064;-73
2020/12/25 01:56:30;;;;;;;16.50;14.70;;;2.70;99.90;;;;;;5063283;28;20044;-72
2020/12/25 01:58:56;;;;;;;17.20;15.50;;;2.60;99.90;;;;;;5063317;28;20123;-73
2020/12/25 02:01:23;;;;;;;17.58;15.77;;;2.60;99.90;;;;;;5064119;28;20044;-73
2020/12/25 02:03:50;;;;;;;17.38;15.77;;;2.60;99.90;;;;;;5045041;28;20041;-73
2020/12/25 02:06:16;;;;;;;19.58;16.33;;;2.70;99.90;;;;;;5063810;28;20131;-73
2020/12/25 02:08:42;;;;;;;23.38;17.90;;;2.60;99.90;;;;;;5046645;28;20049;-74
2020/12/25 02:11:10;;;;;;;18.55;16.67;;;2.60;99.90;;;;;;5053944;28;20134;-73
2020/12/25 02:13:37;;;;;;;19.70;16.50;;;2.50;99.90;;;;;;5066846;28;20127;-73
2020/12/25 02:16:05;;;;;;;17.55;15.85;;;2.50;99.90;;;;;;5067905;28;20044;-73
2020/12/25 02:18:38;;;;;;;17.83;16.08;;;2.50;99.90;;;;;;5066527;28;20076;-74
2020/12/25 02:21:05;;;;;;;18.40;16.50;;;2.40;99.90;;;;;;5050209;28;20445;-72
2020/12/25 02:23:51;;;;;;;18.95;17.02;;;2.40;99.90;;;;;;5053706;28;20214;-72
2020/12/25 02:26:38;;;;;;;18.58;16.77;;;2.30;99.90;;;;;;5064384;28;20657;-72
2020/12/25 02:29:24;;;;;;;19.00;17.00;;;2.30;99.90;;;;;;5067374;28;20049;-73
2020/12/25 02:32:10;;;;;;;23.58;18.80;;;2.30;99.90;;;;;;5058940;28;20059;-74
2020/12/25 02:34:56;;;;;;;19.88;17.80;;;2.20;99.90;;;;;;5062430;28;20056;-73
2020/12/25 02:37:43;;;;;;;22.63;18.33;;;2.20;99.90;;;;;;5067086;28;20044;-72
2020/12/25 02:40:30;;;;;;;22.08;18.95;;;2.20;99.90;;;;;;5077857;28;20405;-74
2020/12/25 02:43:16;;;;;;;24.98;20.90;;;2.20;99.90;;;;;;5056174;28;20134;-71
2020/12/25 02:46:03;;;;;;;23.45;20.60;;;2.20;99.90;;;;;;5065760;28;20139;-74
2020/12/25 02:48:50;;;;;;;24.48;19.85;;;2.20;99.90;;;;;;5067737;28;20056;-74
2020/12/25 02:51:36;;;;;;;27.73;19.65;;;2.20;99.90;;;;;;5065541;28;20048;-73
2020/12/25 02:54:22;;;;;;;24.63;20.02;;;2.30;99.90;;;;;;5059327;28;20544;-73
2020/12/25 02:57:08;;;;;;;24.00;20.38;;;2.30;99.90;;;;;;5058182;28;20374;-73
2020/12/25 02:59:55;;;;;;;25.90;19.77;;;2.20;99.90;;;;;;5065758;28;20547;-72
2020/12/25 03:02:41;;;;;;;26.27;21.17;;;2.20;99.90;;;;;;5065889;28;20063;-73
2020/12/25 03:05:27;;;;;;;26.70;20.70;;;2.20;99.90;;;;;;5066706;28;20047;-72
2020/12/25 03:08:13;;;;;;;28.40;21.27;;;2.10;99.90;;;;;;5066816;28;20060;-72
2020/12/25 03:11:00;;;;;;;26.67;20.55;;;2.10;99.90;;;;;;5063824;28;20040;-73
2020/12/25 03:13:46;;;;;;;24.05;20.80;;;2.20;99.90;;;;;;5067190;28;20044;-73
2020/12/25 03:16:33;;;;;;;24.20;19.20;;;2.10;99.90;;;;;;5051219;28;20066;-73
2020/12/25 03:19:19;;;;;;;21.02;18.65;;;2.00;99.90;;;;;;5066804;28;20094;-73
2020/12/25 03:22:05;;;;;;;26.67;19.67;;;2.00;99.90;;;;;;5059902;28;20051;-73
2020/12/25 03:24:52;;;;;;;24.63;18.38;;;2.00;99.90;;;;;;5056898;28;20059;-73
2020/12/25 03:27:38;;;;;;;22.27;18.48;;;1.90;99.90;;;;;;5066181;28;20413;-72
2020/12/25 03:30:24;;;;;;;22.00;18.75;;;1.90;99.90;;;;;;5065851;28;20058;-73
2020/12/25 03:33:11;;;;;;;25.73;19.00;;;1.90;99.90;;;;;;5066085;28;20048;-73
2020/12/25 03:36:09;;;;;;;22.75;18.00;;;1.90;99.90;;;;;;5052669;28;20541;-73
2020/12/25 03:38:55;;;;;;;24.88;18.10;;;2.00;99.90;;;;;;5066517;28;20386;-74
2020/12/25 03:41:41;;;;;;;28.45;19.67;;;2.00;99.90;;;;;;5055725;28;20056;-74
2020/12/25 03:44:28;;;;;;;23.48;18.15;;;2.10;99.90;;;;;;5059804;28;20053;-73
2020/12/25 03:47:14;;;;;;;22.92;16.92;;;2.00;99.90;;;;;;5046167;28;20720;-73
2020/12/25 03:50:01;;;;;;;19.58;17.52;;;2.00;99.90;;;;;;5059252;28;20390;-73
2020/12/25 03:52:47;;;;;;;22.98;17.05;;;2.10;99.90;;;;;;5055358;28;20040;-73
2020/12/25 03:55:33;;;;;;;22.30;17.50;;;2.10;99.90;;;;;;5075233;28;20045;-71
2020/12/25 03:58:19;;;;;;;21.05;17.10;;;2.00;99.90;;;;;;5047711;28;20425;-73
2020/12/25 04:01:05;;;;;;;22.98;16.80;;;2.00;99.90;;;;;;5044932;28;20060;-73
2020/12/25 04:03:52;;;;;;;19.33;17.33;;;1.90;99.90;;;;;;5044011;28;20049;-73
2020/12/25 04:06:38;;;;;;;22.95;17.95;;;1.90;99.90;;;;;;5038366;28;20075;-72
2020/12/25 04:09:25;;;;;;;26.75;18.55;;;2.00;99.90;;;;;;5066354;28;20677;-73
2020/12/25 04:12:11;;;;;;;21.60;16.95;;;2.10;99.90;;;;;;5064369;28;20055;-73
2020/12/25 04:14:57;;;;;;;21.90;17.45;;;2.10;99.90;;;;;;5066493;28;20076;-72
2020/12/25 04:17:44;;;;;;;25.35;17.70;;;2.00;99.90;;;;;;5051402;28;20040;-72
2020/12/25 04:20:30;;;;;;;23.42;17.92;;;1.90;99.90;;;;;;5063964;28;20106;-73
2020/12/25 04:23:16;;;;;;;22.63;18.13;;;1.90;99.90;;;;;;5056576;28;20414;-72
2020/12/25 04:26:03;;;;;;;25.45;18.65;;;2.00;99.90;;;;;;5043805;28;20146;-72
2020/12/25 04:28:49;;;;;;;22.42;17.25;;;1.90;99.90;;;;;;5064138;28;20428;-73
2020/12/25 04:31:35;;;;;;;22.17;16.70;;;1.90;99.90;;;;;;5064793;28;20068;-73
2020/12/25 04:34:21;;;;;;;18.65;15.98;;;1.80;99.90;;;;;;5063394;28;20658;-71
2020/12/25 04:37:08;;;;;;;18.55;16.73;;;1.70;99.90;;;;;;5065077;28;20421;-73
2020/12/25 04:39:54;;;;;;;17.75;15.85;;;1.70;99.90;;;;;;5063680;28;20500;-72
2020/12/25 04:42:41;;;;;;;16.48;14.77;;;1.70;99.90;;;;;;5032109;28;20037;-74
2020/12/25 04:45:28;;;;;;;17.13;15.52;;;1.70;99.90;;;;;;5043466;28;20425;-73
2020/12/25 04:48:14;;;;;;;17.13;15.10;;;1.50;99.90;;;;;;5062985;28;20135;-73
2020/12/25 04:51:01;;;;;;;16.25;14.70;;;1.50;99.90;;;;;;5063286;28;20060;-72
2020/12/25 04:53:49;;;;;;;15.63;14.43;;;1.50;99.90;;;;;;5056080;28;20041;-72
2020/12/25 04:56:36;;;;;;;16.33;15.07;;;1.40;99.90;;;;;;5063250;28;20051;-73
2020/12/25 04:59:22;;;;;;;16.83;14.88;;;1.40;99.90;;;;;;5064397;28;20052;-73
2020/12/25 05:02:09;;;;;;;18.30;16.67;;;1.40;99.90;;;;;;5063081;28;20157;-74
2020/12/25 05:04:55;;;;;;;17.92;16.30;;;1.30;99.90;;;;;;5064317;28;20051;-73
2020/12/25 05:07:42;;;;;;;19.10;17.23;;;1.40;99.90;;;;;;5063128;28;20040;-72
2020/12/25 05:10:29;;;;;;;26.17;21.02;;;1.30;99.90;;;;;;5064910;28;20036;-73
2020/12/25 05:13:17;;;;;;;18.35;16.73;;;1.30;99.90;;;;;;5063914;28;20053;-72
2020/12/25 05:16:04;;;;;;;21.05;18.35;;;1.30;99.90;;;;;;5063301;28;20043;-73
2020/12/25 05:18:51;;;;;;;18.50;16.95;;;1.30;99.90;;;;;;5064503;28;20045;-73
2020/12/25 05:21:39;;;;;;;20.02;18.10;;;1.30;99.90;;;;;;5049624;28;20437;-72
2020/12/25 05:24:34;;;;;;;18.08;16.75;;;1.20;99.90;;;;;;5056075;28;20045;-73
2020/12/25 05:27:23;;;;;;;18.13;16.65;;;1.20;99.90;;;;;;5049227;28;20041;-74
2020/12/25 05:30:12;;;;;;;18.48;16.70;;;1.20;99.90;;;;;;5063372;28;20509;-74
2020/12/25 05:33:01;;;;;;;18.70;17.13;;;1.20;99.90;;;;;;5064323;28;20052;-73
2020/12/25 05:35:53;;;;;;;17.77;16.38;;;1.10;99.90;;;;;;5063440;28;20048;-72
2020/12/25 05:38:50;;;;;;;18.67;16.83;;;1.10;99.90;;;;;;5063882;28;20052;-73
2020/12/25 05:41:37;;;;;;;19.42;17.77;;;1.00;99.90;;;;;;5062926;28;20128;-73
2020/12/25 05:44:24;;;;;;;21.45;19.55;;;1.00;99.90;;;;;;5047957;28;20048;-72
2020/12/25 05:47:16;;;;;;;21.55;19.70;;;1.00;99.90;;;;;;5063754;28;20049;-73
2020/12/25 05:50:03;;;;;;;20.10;18.00;;;1.10;99.90;;;;;;5063364;28;20067;-73
2020/12/25 05:52:51;;;;;;;19.70;17.88;;;1.30;99.90;;;;;;5058950;28;20051;-72
2020/12/25 05:55:38;;;;;;;20.65;17.92;;;1.30;99.90;;;;;;5058430;28;20049;-72
2020/12/25 05:58:30;;;;;;;20.60;18.80;;;1.30;99.90;;;;;;5043129;28;20714;-73
2020/12/25 06:01:17;;;;;;;21.48;19.23;;;1.30;99.90;;;;;;5043919;28;20045;-73
2020/12/25 06:04:03;;;;;;;20.67;17.02;;;1.30;99.90;;;;;;5043303;28;20454;-73
2020/12/25 06:06:50;;;;;;;19.33;17.25;;;1.20;99.90;;;;;;5042697;28;20131;-74
2020/12/25 06:09:44;;;;;;;20.58;17.70;;;1.20;99.90;;;;;;5054178;28;20078;-73
2020/12/25 06:12:51;;;;;;;19.35;17.33;;;1.00;99.90;;;;;;5062427;28;20041;-73
2020/12/25 06:15:38;;;;;;;20.17;18.10;;;0.80;99.90;;;;;;5064508;28;20047;-74
2020/12/25 06:18:44;;;;;;;20.27;16.65;;;0.80;99.90;;;;;;5064163;28;20055;-73
2020/12/25 06:21:34;;;;;;;20.23;17.50;;;0.80;99.90;;;;;;5064172;28;20051;-74
2020/12/25 06:24:26;;;;;;;19.10;16.25;;;0.90;99.90;;;;;;5060043;28;20594;-74
2020/12/25 06:27:14;;;;;;;25.50;17.92;;;0.80;99.90;;;;;;5063480;28;20059;-74
2020/12/25 06:30:06;;;;;;;19.15;17.25;;;0.80;99.90;;;;;;5063909;28;20050;-74
2020/12/25 06:32:54;;;;;;;17.45;15.57;;;0.80;99.90;;;;;;5062697;28;20490;-74
2020/12/25 06:35:43;;;;;;;19.27;15.73;;;0.70;99.90;;;;;;5064178;28;20133;-74
2020/12/25 06:38:40;;;;;;;25.52;17.30;;;0.80;99.90;;;;;;5064558;28;20071;-72
2020/12/25 06:41:27;;;;;;;18.73;16.92;;;0.70;99.90;;;;;;5061108;28;20045;-73
2020/12/25 06:44:16;;;;;;;17.27;15.50;;;0.70;99.90;;;;;;5077146;28;20059;-72
2020/12/25 06:47:03;;;;;;;18.75;15.65;;;0.60;99.90;;;;;;5061964;28;20049;-73
2020/12/25 06:49:49;;;;;;;19.23;16.15;;;0.40;99.90;;;;;;5064187;28;20048;-72
2020/12/25 06:52:53;;;;;;;17.85;15.93;;;0.40;99.90;;;;;;5073948;28;20086;-73
2020/12/25 06:55:43;;;;;;;17.67;15.82;;;0.40;99.90;;;;;;5062734;28;20047;-72
2020/12/25 06:58:35;;;;;;;21.02;16.70;;;0.50;99.90;;;;;;5078438;28;20436;-72
2020/12/25 07:01:37;;;;;;;20.13;16.52;;;0.50;99.90;;;;;;5064995;28;20052;-73
2020/12/25 07:04:28;;;;;;;20.88;15.30;;;0.50;99.90;;;;;;5067825;28;20048;-72
2020/12/25 07:07:19;;;;;;;19.48;15.27;;;0.40;99.90;;;;;;5051820;28;20055;-72
2020/12/25 07:10:10;;;;;;;19.13;15.88;;;0.40;99.90;;;;;;5051352;28;20048;-72
2020/12/25 07:12:57;;;;;;;21.52;16.25;;;0.40;99.90;;;;;;5066043;28;20058;-72
2020/12/25 07:15:45;;;;;;;20.52;15.32;;;0.40;99.90;;;;;;5066091;28;20523;-73
2020/12/25 07:18:32;;;;;;;21.30;16.38;;;0.30;99.90;;;;;;5066158;28;20044;-73
2020/12/25 07:21:19;;;;;;;30.05;17.10;;;0.40;99.90;;;;;;5065820;28;20079;-73
2020/12/25 07:24:06;;;;;;;24.20;16.15;;;0.30;99.90;;;;;;5043727;28;20477;-72
2020/12/25 07:26:54;;;;;;;25.10;16.42;;;0.40;99.90;;;;;;5050857;28;20874;-72
2020/12/25 07:29:42;;;;;;;27.33;17.90;;;0.40;99.90;;;;;;5067252;28;20048;-73
2020/12/25 07:32:30;;;;;;;29.02;18.35;;;0.50;99.90;;;;;;5065000;28;20044;-73
2020/12/25 07:35:19;;;;;;;25.08;17.65;;;0.60;99.90;;;;;;5066348;28;20044;-73
2020/12/25 07:38:05;;;;;;;25.33;17.10;;;0.50;99.90;;;;;;5065712;28;20040;-72
2020/12/25 07:40:51;;;;;;;25.85;17.13;;;0.50;99.90;;;;;;5064244;28;20075;-72
2020/12/25 07:43:38;;;;;;;31.42;19.23;;;0.40;99.90;;;;;;5066839;28;20052;-73
2020/12/25 07:46:25;;;;;;;31.00;19.67;;;0.50;99.90;;;;;;5064880;28;20520;-73
2020/12/25 07:49:11;;;;;;;28.65;19.67;;;0.60;99.90;;;;;;5065724;28;20044;-73
2020/12/25 07:51:58;;;;;;;28.52;18.65;;;0.70;99.90;;;;;;5066182;28;20076;-71
2020/12/25 07:54:45;;;;;;;35.08;21.83;;;0.70;99.90;;;;;;5049611;28;20052;-72
2020/12/25 07:57:31;;;;;;;26.20;18.60;;;0.70;99.90;;;;;;5046103;28;20049;-73
2020/12/25 08:00:17;;;;;;;28.58;20.88;;;0.60;99.90;;;;;;5031263;28;20045;-72
2020/12/25 08:03:05;;;;;;;27.50;19.23;;;0.60;99.90;;;;;;5045567;28;20049;-73
2020/12/25 08:05:52;;;;;;;26.08;19.50;;;0.50;99.90;;;;;;5044242;28;20051;-72
2020/12/25 08:08:48;;;;;;;29.70;18.55;;;0.50;99.90;;;;;;5047053;28;20582;-72
2020/12/25 08:11:35;;;;;;;;;;;0.40;99.90;;;;;;5064021;28;20422;-71
2020/12/25 08:14:22;;;;;;;28.73;20.27;;;0.40;99.90;;;;;;5064350;28;19931;-72
2020/12/25 08:17:09;;;;;;;27.38;18.95;;;0.40;99.90;;;;;;5065707;28;20131;-72
2020/12/25 08:19:55;;;;;;;27.85;18.85;;;0.30;99.90;;;;;;5065193;28;20501;-73
2020/12/25 08:22:42;;;;;;;26.08;19.23;;;0.40;99.90;;;;;;5063226;28;20036;-74
2020/12/25 08:25:29;;;;;;;35.33;20.30;;;0.50;99.90;;;;;;5056355;28;20093;-74
2020/12/25 08:28:16;;;;;;;30.38;20.77;;;0.50;99.90;;;;;;5046011;28;20512;-74
2020/12/25 08:31:16;;;;;;;32.45;19.27;;;0.50;99.90;;;;;;5044538;28;20059;-75
2020/12/25 08:34:05;;;;;;;24.80;18.17;;;0.60;99.90;;;;;;5058630;28;20053;-75
2020/12/25 08:37:03;;;;;;;21.40;16.23;;;0.80;99.90;;;;;;5057808;28;20053;-76
2020/12/25 08:39:49;;;;;;;21.40;16.73;;;0.80;99.90;;;;;;5064187;28;20055;-74
2020/12/25 08:42:36;;;;;;;28.92;18.02;;;0.80;99.90;;;;;;5047079;28;20045;-75
2020/12/25 08:45:22;;;;;;;23.73;17.13;;;0.90;99.90;;;;;;5045209;28;20049;-75
2020/12/25 08:48:10;;;;;;;27.60;18.50;;;0.90;99.90;;;;;;5045082;28;20083;-74
2020/12/25 08:51:09;;;;;;;23.63;17.13;;;1.00;99.90;;;;;;5045349;28;20041;-75
2020/12/25 08:53:55;;;;;;;25.15;17.80;;;1.00;99.90;;;;;;5063257;28;20064;-75
2020/12/25 08:56:41;;;;;;;27.40;17.98;;;1.10;99.90;;;;;;5056892;28;20064;-74
2020/12/25 08:59:28;;;;;;;19.25;15.10;;;1.10;99.90;;;;;;5065581;28;20413;-75
2020/12/25 09:02:15;;;;;;;22.70;16.98;;;1.10;99.90;;;;;;5062852;28;20135;-75
2020/12/25 09:05:02;;;;;;;23.02;16.08;;;1.10;99.90;;;;;;5065126;28;20162;-75
2020/12/25 09:07:48;;;;;;;24.35;16.60;;;1.20;99.90;;;;;;5064463;28;20071;-75
2020/12/25 09:10:35;;;;;;;26.98;16.80;;;1.20;99.90;;;;;;5064353;28;20435;-74
2020/12/25 09:13:21;;;;;;;19.17;15.93;;;1.20;99.90;;;;;;5043470;28;20384;-74
2020/12/25 09:16:06;;;;;;;22.10;15.90;;;1.30;99.90;;;;;;5053384;28;20420;-74
2020/12/25 09:18:34;;;;;;;22.77;16.35;;;1.40;99.90;;;;;;5056997;28;20143;-75
2020/12/25 09:21:00;;;;;;;26.25;16.80;;;1.50;99.90;;;;;;5058184;28;20056;-75
2020/12/25 09:23:30;;;;;;;21.00;16.08;;;1.50;99.90;;;;;;5038270;28;20144;-74
2020/12/25 09:25:57;;;;;;;17.10;15.32;;;1.50;99.90;;;;;;5068369;28;20056;-74
2020/12/25 09:28:24;;;;;;;21.25;16.45;;;1.50;99.90;;;;;;5037276;28;20053;-74
2020/12/25 09:30:52;;;;;;;18.95;15.18;;;1.50;99.90;;;;;;5060691;28;20095;-74
2020/12/25 09:33:19;;;;;;;21.65;14.85;;;1.40;99.90;;;;;;5053610;28;20061;-73
2020/12/25 09:35:45;;;;;;;20.35;15.32;;;1.40;99.90;;;;;;5053853;28;20423;-74
2020/12/25 09:38:11;;;;;;;18.55;16.15;;;1.20;99.90;;;;;;5055547;28;20409;-73
2020/12/25 09:40:38;;;;;;;24.10;16.17;;;1.20;99.90;;;;;;5035845;28;20128;-74
2020/12/25 09:43:05;;;;;;;22.02;14.77;;;1.30;99.90;;;;;;5044645;28;20110;-73
2020/12/25 09:45:31;;;;;;;22.52;16.20;;;1.40;99.90;;;;;;5062651;28;20124;-74
2020/12/25 09:47:57;;;;;;;22.48;15.30;;;1.30;99.90;;;;;;5061225;28;20052;-73
2020/12/25 09:50:24;;;;;;;22.63;17.45;;;1.20;99.90;;;;;;5030122;28;20151;-73
2020/12/25 09:52:51;;;;;;;30.08;16.90;;;1.30;99.90;;;;;;5045457;28;20072;-73
2020/12/25 09:55:17;;;;;;;23.65;16.65;;;1.20;99.90;;;;;;5053928;28;20116;-74
2020/12/25 09:57:43;;;;;;;21.30;15.77;;;1.20;99.90;;;;;;5042022;28;20056;-74
2020/12/25 10:00:11;;;;;;;27.20;16.02;;;1.30;99.90;;;;;;5042192;28;20091;-73
2020/12/25 10:02:38;;;;;;;17.05;15.05;;;1.30;99.90;;;;;;5069303;28;20037;-74
2020/12/25 10:05:06;;;;;;;21.63;16.27;;;1.40;99.90;;;;;;5028727;28;20068;-73
2020/12/25 10:07:33;;;;;;;24.35;16.42;;;1.40;99.90;;;;;;5061549;28;20052;-75
2020/12/25 10:10:07;;;;;;;16.88;14.93;;;1.50;99.90;;;;;;5028079;28;20053;-73
2020/12/25 10:12:34;;;;;;;23.75;16.63;;;1.30;99.90;;;;;;5049438;28;20605;-74
2020/12/25 10:15:01;;;;;;;20.55;15.57;;;1.40;99.90;;;;;;5065797;28;20139;-74
2020/12/25 10:17:28;;;;;;;21.58;15.80;;;1.40;99.90;;;;;;5043481;28;20545;-74
2020/12/25 10:19:54;;;;;;;19.48;15.18;;;1.40;99.90;;;;;;5062303;28;20052;-74
2020/12/25 10:22:21;;;;;;;21.13;14.52;;;1.40;99.90;;;;;;5026574;28;20049;-74
2020/12/25 10:24:48;;;;;;;18.92;14.98;;;1.50;99.90;;;;;;5024501;28;20044;-74
2020/12/25 10:27:15;;;;;;;20.70;14.95;;;1.50;99.90;;;;;;5042919;28;20670;-73
2020/12/25 10:29:41;;;;;;;18.10;14.30;;;1.60;99.90;;;;;;5041421;28;20608;-74
2020/12/25 10:32:07;;;;;;;17.58;13.85;;;1.70;99.90;;;;;;5055614;28;20053;-74
2020/12/25 10:34:35;;;;;;;16.25;12.27;;;1.90;99.90;;;;;;5063165;28;20037;-75
2020/12/25 10:37:02;;;;;;;19.67;13.70;;;2.10;99.90;;;;;;5047896;28;20071;-75
2020/12/25 10:39:28;;;;;;;15.77;13.50;;;2.20;99.90;;;;;;5064260;28;20080;-74
2020/12/25 10:41:54;;;;;;;24.17;15.80;;;2.30;99.90;;;;;;5043073;28;20126;-74
2020/12/25 10:44:21;;;;;;;16.73;14.93;;;2.40;99.90;;;;;;5031784;28;20059;-74
2020/12/25 10:46:47;;;;;;;16.08;14.35;;;2.30;99.90;;;;;;5030958;28;20089;-73
2020/12/25 10:49:13;;;;;;;14.32;13.07;;;2.40;99.90;;;;;;5031284;28;20147;-72
2020/12/25 10:51:46;;;;;;;17.08;14.15;;;2.20;99.90;;;;;;5048473;28;20045;-73
2020/12/25 10:54:13;;;;;;;16.45;14.80;;;2.10;99.90;;;;;;5044898;28;20567;-72
2020/12/25 10:56:39;;;;;;;18.83;13.88;;;2.00;99.90;;;;;;5053236;28;20579;-72
2020/12/25 10:59:22;;;;;;;14.73;13.27;;;1.90;99.90;;;;;;5045100;28;20075;-73
2020/12/25 11:01:48;;;;;;;19.00;14.68;;;1.80;99.90;;;;;;5051075;28;20126;-72
2020/12/25 11:04:15;;;;;;;18.48;15.73;;;1.70;99.90;;;;;;5036803;28;20041;-72
2020/12/25 11:06:41;;;;;;;23.02;15.98;;;1.70;99.90;;;;;;5045957;28;20080;-73
2020/12/25 11:09:09;;;;;;;19.23;16.55;;;1.60;99.90;;;;;;5045450;28;20075;-73
2020/12/25 11:11:37;;;;;;;17.27;15.50;;;1.60;99.90;;;;;;5035079;28;20078;-73
2020/12/25 11:14:05;;;;;;;18.63;16.77;;;1.60;99.90;;;;;;5031398;28;20459;-73
2020/12/25 11:16:34;;;;;;;19.30;16.30;;;1.50;99.90;;;;;;5063663;28;20129;-73
2020/12/25 11:19:03;;;;;;;25.70;15.40;;;1.50;99.90;;;;;;5031398;28;20064;-73
2020/12/25 11:21:30;;;;;;;22.15;15.35;;;1.60;99.90;;;;;;5047820;28;20044;-73
2020/12/25 11:23:59;;;;;;;22.40;14.38;;;1.60;99.90;;;;;;5045098;28;20049;-73
2020/12/25 11:26:27;;;;;;;20.60;15.15;;;1.60;99.90;;;;;;5021249;28;20048;-73
2020/12/25 11:28:57;;;;;;;16.25;14.75;;;1.60;99.90;;;;;;5042691;28;20053;-74
2020/12/25 11:31:24;;;;;;;15.40;13.85;;;1.60;99.90;;;;;;5064607;28;20070;-73
2020/12/25 11:33:53;;;;;;;16.63;14.82;;;1.60;99.90;;;;;;5039729;28;20041;-74
2020/12/25 11:36:21;;;;;;;17.80;13.30;;;1.70;99.90;;;;;;5047140;28;20144;-73
2020/12/25 11:38:48;;;;;;;18.98;13.95;;;1.90;99.90;;;;;;5064311;28;20045;-73
2020/12/25 11:41:17;;;;;;;14.30;12.88;;;2.20;99.90;;;;;;5029612;28;20056;-73
2020/12/25 11:43:44;;;;;;;18.27;14.65;;;2.20;99.90;;;;;;5064929;28;20145;-74
2020/12/25 11:46:11;;;;;;;14.68;12.85;;;2.20;99.90;;;;;;5030129;28;20049;-74
2020/12/25 11:48:38;;;;;;;13.75;12.38;;;2.20;99.90;;;;;;5063944;28;20053;-73
2020/12/25 11:51:06;;;;;;;13.77;12.50;;;2.30;99.90;;;;;;5056041;28;20049;-73
2020/12/25 11:53:33;;;;;;;14.98;13.98;;;2.30;99.90;;;;;;5030476;28;20045;-73
2020/12/25 11:56:00;;;;;;;18.38;13.75;;;2.40;99.90;;;;;;5034054;28;20579;-72
2020/12/25 11:58:26;;;;;;;19.85;14.10;;;2.20;99.90;;;;;;5027459;28;20421;-73
2020/12/25 12:00:52;;;;;;;15.88;13.85;;;2.00;99.90;;;;;;5030495;28;20048;-73
2020/12/25 12:03:18;;;;;;;15.30;13.98;;;1.90;99.90;;;;;;5054092;28;20052;-72
2020/12/25 12:05:45;;;;;;;14.15;13.02;;;2.00;99.90;;;;;;5043179;28;20203;-73
2020/12/25 12:08:12;;;;;;;14.35;13.05;;;2.00;99.90;;;;;;5043486;28;20067;-72
2020/12/25 12:10:39;;;;;;;15.25;13.75;;;2.10;99.90;;;;;;5043020;28;20041;-73
2020/12/25 12:13:06;;;;;;;14.18;12.88;;;2.40;99.90;;;;;;5057154;28;20113;-73
2020/12/25 12:15:37;;;;;;;14.15;13.02;;;2.50;99.90;;;;;;5062936;28;20059;-72
2020/12/25 12:18:05;;;;;;;15.27;13.57;;;2.70;99.90;;;;;;5065100;28;20045;-73
2020/12/25 12:20:32;;;;;;;14.52;13.60;;;2.90;99.90;;;;;;5063750;28;20653;-73
2020/12/25 12:22:59;;;;;;;16.17;14.50;;;3.00;99.90;;;;;;5065081;28;20405;-72
2020/12/25 12:25:25;;;;;;;15.75;14.45;;;3.00;99.90;;;;;;5055919;28;20091;-73
2020/12/25 12:27:51;;;;;;;22.52;15.57;;;3.10;99.90;;;;;;5045641;28;20041;-72
2020/12/25 12:30:18;;;;;;;17.55;15.73;;;3.20;99.90;;;;;;5062924;28;20052;-73
2020/12/25 12:32:44;;;;;;;17.27;15.82;;;3.20;99.90;;;;;;5060150;28;20298;-72
2020/12/25 12:35:10;;;;;;;17.52;15.75;;;3.20;99.90;;;;;;5053672;28;20075;-74
2020/12/25 12:37:37;;;;;;;16.05;14.68;;;3.30;99.90;;;;;;5033383;28;20042;-73
2020/12/25 12:40:04;;;;;;;15.50;14.23;;;3.40;99.90;;;;;;5055305;28;20048;-73
2020/12/25 12:42:34;;;;;;;15.98;14.75;;;3.40;99.90;;;;;;5059494;28;20640;-73
2020/12/25 12:45:00;;;;;;;17.90;16.02;;;3.40;99.90;;;;;;5062476;28;20516;-73
2020/12/25 12:47:29;;;;;;;16.95;15.13;;;3.40;99.90;;;;;;5042037;28;20040;-73
2020/12/25 12:49:56;;;;;;;14.32;13.13;;;3.40;99.90;;;;;;5049043;28;20057;-73
2020/12/25 12:52:22;;;;;;;14.85;13.68;;;3.30;99.90;;;;;;5036029;28;20055;-73
2020/12/25 12:54:49;;;;;;;15.95;14.43;;;3.30;99.90;;;;;;5052356;28;20049;-73
2020/12/25 12:57:15;;;;;;;16.77;15.48;;;3.20;99.90;;;;;;5026699;28;20056;-74
2020/12/25 12:59:41;;;;;;;16.30;14.25;;;3.20;99.90;;;;;;5037385;28;20050;-74
2020/12/25 13:02:07;;;;;;;14.52;13.45;;;3.20;99.90;;;;;;5057717;28;20075;-75
2020/12/25 13:04:34;;;;;;;16.13;14.63;;;3.20;99.90;;;;;;5051374;28;20444;-74
2020/12/25 13:07:04;;;;;;;15.52;14.13;;;3.20;99.90;;;;;;5047307;28;20052;-72
2020/12/25 13:09:32;;;;;;;15.35;13.95;;;3.30;99.90;;;;;;5056154;28;20969;-71
2020/12/25 13:12:05;;;;;;;16.52;15.30;;;3.30;99.90;;;;;;5063821;28;20044;-72
2020/12/25 13:14:31;;;;;;;16.67;13.95;;;3.10;99.90;;;;;;5045843;28;20052;-74
2020/12/25 13:16:58;;;;;;;15.40;14.02;;;3.00;99.90;;;;;;5024860;28;20148;-74
2020/12/25 13:19:24;;;;;;;15.25;13.95;;;2.90;99.90;;;;;;5042767;28;20056;-72
2020/12/25 13:21:54;;;;;;;16.83;14.07;;;2.80;99.90;;;;;;5056620;28;20036;-71
2020/12/25 13:24:21;;;;;;;15.23;13.70;;;2.90;99.90;;;;;;5051220;28;20143;-74
2020/12/25 13:26:47;;;;;;;16.02;14.45;;;2.90;99.90;;;;;;5048389;28;20036;-72
2020/12/25 13:29:14;;;;;;;16.42;14.93;;;3.00;99.90;;;;;;5014898;28;20049;-73